sensor_id;sensor_type;location;lat;lon;timestamp;P1;durP1;ratioP1;P2;durP2;ratioP2
6997;SDS011;3539;47.982;12.238;2023-05-24T00:01:53;4.93;;;4.43;;
6997;SDS011;3539;47.982;12.238;2023-05-24T00:04:20;4.63;;;3.93;;
6997;SDS011;3539;47.982;12.238;2023-05-24T00:06:49;4.47;;;4.07;;
6997;SDS011;3539;47.982;12.238;2023-05-24T00:09:17;4.77;;;3.80;;
6997;SDS011;3539;47.982;12.238;2023-05-24T00:11:44;4.33;;;3.93;;
6997;SDS011;3539;47.982;12.238;2023-05-24T00:14:10;4.70;;;4.30;;
6997;SDS011;3539;47.982;12.238;2023-05-24T00:16:37;4.43;;;4.03;;
6997;SDS011;3539;47.982;12.238;2023-05-24T00:19:04;4.87;;;4.37;;
6997;SDS011;3539;47.982;12.238;2023-05-24T00:21:30;4.63;;;4.23;;
6997;SDS011;3539;47.982;12.238;2023-05-24T00:23:59;4.77;;;4.37;;
6997;SDS011;3539;47.982;12.238;2023-05-24T00:26:27;4.63;;;4.23;;
6997;SDS011;3539;47.982;12.238;2023-05-24T00:28:54;5.33;;;4.53;;
6997;SDS011;3539;47.982;12.238;2023-05-24T00:31:21;4.63;;;4.23;;
6997;SDS011;3539;47.982;12.238;2023-05-24T00:33:47;5.13;;;4.60;;
6997;SDS011;3539;47.982;12.238;2023-05-24T00:36:14;7.60;;;4.60;;
6997;SDS011;3539;47.982;12.238;2023-05-24T00:38:41;4.83;;;4.27;;
6997;SDS011;3539;47.982;12.238;2023-05-24T00:41:07;5.30;;;4.80;;
6997;SDS011;3539;47.982;12.238;2023-05-24T00:43:36;5.40;;;4.37;;
6997;SDS011;3539;47.982;12.238;2023-05-24T00:46:14;5.20;;;4.70;;
6997;SDS011;3539;47.982;12.238;2023-05-24T00:48:42;4.50;;;4.07;;
6997;SDS011;3539;47.982;12.238;2023-05-24T00:51:09;4.90;;;4.50;;
6997;SDS011;3539;47.982;12.238;2023-05-24T00:53:36;4.93;;;4.43;;
6997;SDS011;3539;47.982;12.238;2023-05-24T00:56:03;7.03;;;4.20;;
6997;SDS011;3539;47.982;12.238;2023-05-24T00:58:29;6.23;;;4.43;;
6997;SDS011;3539;47.982;12.238;2023-05-24T01:00:59;8.43;;;4.67;;
6997;SDS011;3539;47.982;12.238;2023-05-24T01:03:26;5.13;;;4.63;;
6997;SDS011;3539;47.982;12.238;2023-05-24T01:05:54;5.03;;;4.63;;
6997;SDS011;3539;47.982;12.238;2023-05-24T01:08:23;4.83;;;4.43;;
6997;SDS011;3539;47.982;12.238;2023-05-24T01:11:00;6.00;;;4.97;;
6997;SDS011;3539;47.982;12.238;2023-05-24T01:13:32;6.60;;;5.33;;
6997;SDS011;3539;47.982;12.238;2023-05-24T01:16:04;5.20;;;4.70;;
6997;SDS011;3539;47.982;12.238;2023-05-24T01:18:34;5.27;;;4.77;;
6997;SDS011;3539;47.982;12.238;2023-05-24T01:21:09;5.60;;;5.10;;
6997;SDS011;3539;47.982;12.238;2023-05-24T01:23:43;4.80;;;4.40;;
6997;SDS011;3539;47.982;12.238;2023-05-24T01:26:16;4.93;;;4.53;;
6997;SDS011;3539;47.982;12.238;2023-05-24T01:28:46;5.07;;;4.30;;
6997;SDS011;3539;47.982;12.238;2023-05-24T01:31:14;6.30;;;4.57;;
6997;SDS011;3539;47.982;12.238;2023-05-24T01:33:41;4.80;;;4.30;;
6997;SDS011;3539;47.982;12.238;2023-05-24T01:36:08;5.60;;;5.00;;
6997;SDS011;3539;47.982;12.238;2023-05-24T01:38:35;6.63;;;5.10;;
6997;SDS011;3539;47.982;12.238;2023-05-24T01:41:04;5.47;;;4.90;;
6997;SDS011;3539;47.982;12.238;2023-05-24T01:43:39;5.50;;;5.00;;
6997;SDS011;3539;47.982;12.238;2023-05-24T01:46:10;5.00;;;4.50;;
6997;SDS011;3539;47.982;12.238;2023-05-24T01:48:43;5.40;;;4.90;;
6997;SDS011;3539;47.982;12.238;2023-05-24T01:51:17;4.70;;;4.27;;
6997;SDS011;3539;47.982;12.238;2023-05-24T01:53:45;5.53;;;5.03;;
6997;SDS011;3539;47.982;12.238;2023-05-24T01:56:12;5.33;;;4.83;;
6997;SDS011;3539;47.982;12.238;2023-05-24T01:58:42;5.07;;;4.60;;
6997;SDS011;3539;47.982;12.238;2023-05-24T02:01:11;5.60;;;5.10;;
6997;SDS011;3539;47.982;12.238;2023-05-24T02:03:38;5.30;;;4.80;;
6997;SDS011;3539;47.982;12.238;2023-05-24T02:06:05;4.97;;;4.47;;
6997;SDS011;3539;47.982;12.238;2023-05-24T02:08:32;5.43;;;4.93;;
6997;SDS011;3539;47.982;12.238;2023-05-24T02:10:59;5.00;;;4.60;;
6997;SDS011;3539;47.982;12.238;2023-05-24T02:13:26;5.03;;;4.63;;
6997;SDS011;3539;47.982;12.238;2023-05-24T02:15:53;6.77;;;5.23;;
6997;SDS011;3539;47.982;12.238;2023-05-24T02:18:21;5.57;;;5.07;;
6997;SDS011;3539;47.982;12.238;2023-05-24T02:20:48;8.07;;;5.57;;
6997;SDS011;3539;47.982;12.238;2023-05-24T02:23:15;5.60;;;5.00;;
6997;SDS011;3539;47.982;12.238;2023-05-24T02:25:42;6.27;;;5.63;;
6997;SDS011;3539;47.982;12.238;2023-05-24T02:28:08;5.77;;;5.17;;
6997;SDS011;3539;47.982;12.238;2023-05-24T02:30:35;5.67;;;5.13;;
6997;SDS011;3539;47.982;12.238;2023-05-24T02:33:02;5.90;;;5.40;;
6997;SDS011;3539;47.982;12.238;2023-05-24T02:35:30;5.93;;;5.33;;
6997;SDS011;3539;47.982;12.238;2023-05-24T02:37:58;5.33;;;4.83;;
6997;SDS011;3539;47.982;12.238;2023-05-24T02:40:25;6.00;;;5.47;;
6997;SDS011;3539;47.982;12.238;2023-05-24T02:42:52;6.00;;;5.40;;
6997;SDS011;3539;47.982;12.238;2023-05-24T02:45:19;5.20;;;4.70;;
6997;SDS011;3539;47.982;12.238;2023-05-24T02:47:45;5.87;;;5.27;;
6997;SDS011;3539;47.982;12.238;2023-05-24T02:50:12;6.50;;;5.90;;
6997;SDS011;3539;47.982;12.238;2023-05-24T02:52:40;6.83;;;6.20;;
6997;SDS011;3539;47.982;12.238;2023-05-24T02:55:08;6.10;;;5.33;;
6997;SDS011;3539;47.982;12.238;2023-05-24T02:57:35;5.70;;;5.20;;
6997;SDS011;3539;47.982;12.238;2023-05-24T03:00:02;6.03;;;5.43;;
6997;SDS011;3539;47.982;12.238;2023-05-24T03:02:31;5.40;;;4.90;;
6997;SDS011;3539;47.982;12.238;2023-05-24T03:04:58;6.97;;;5.67;;
6997;SDS011;3539;47.982;12.238;2023-05-24T03:07:24;6.60;;;5.97;;
6997;SDS011;3539;47.982;12.238;2023-05-24T03:09:53;7.13;;;5.60;;
6997;SDS011;3539;47.982;12.238;2023-05-24T03:12:19;5.77;;;5.17;;
6997;SDS011;3539;47.982;12.238;2023-05-24T03:14:46;5.77;;;5.27;;
6997;SDS011;3539;47.982;12.238;2023-05-24T03:17:13;5.83;;;5.33;;
6997;SDS011;3539;47.982;12.238;2023-05-24T03:19:40;5.10;;;4.70;;
6997;SDS011;3539;47.982;12.238;2023-05-24T03:22:07;6.00;;;5.40;;
6997;SDS011;3539;47.982;12.238;2023-05-24T03:24:34;6.30;;;5.70;;
6997;SDS011;3539;47.982;12.238;2023-05-24T03:27:04;5.93;;;5.40;;
6997;SDS011;3539;47.982;12.238;2023-05-24T03:29:31;6.30;;;5.63;;
6997;SDS011;3539;47.982;12.238;2023-05-24T03:31:57;5.60;;;5.03;;
6997;SDS011;3539;47.982;12.238;2023-05-24T03:34:24;5.83;;;5.23;;
6997;SDS011;3539;47.982;12.238;2023-05-24T03:36:51;6.47;;;5.30;;
6997;SDS011;3539;47.982;12.238;2023-05-24T03:39:18;6.50;;;5.90;;
6997;SDS011;3539;47.982;12.238;2023-05-24T03:41:45;6.10;;;5.50;;
6997;SDS011;3539;47.982;12.238;2023-05-24T03:44:13;7.30;;;5.60;;
6997;SDS011;3539;47.982;12.238;2023-05-24T03:46:39;6.20;;;5.57;;
6997;SDS011;3539;47.982;12.238;2023-05-24T03:49:06;6.10;;;5.50;;
6997;SDS011;3539;47.982;12.238;2023-05-24T03:51:33;5.77;;;5.10;;
6997;SDS011;3539;47.982;12.238;2023-05-24T03:54:00;6.50;;;5.37;;
6997;SDS011;3539;47.982;12.238;2023-05-24T03:56:27;5.87;;;5.37;;
6997;SDS011;3539;47.982;12.238;2023-05-24T03:58:53;5.93;;;5.33;;
6997;SDS011;3539;47.982;12.238;2023-05-24T04:01:25;8.40;;;5.50;;
6997;SDS011;3539;47.982;12.238;2023-05-24T04:03:53;5.47;;;4.97;;
6997;SDS011;3539;47.982;12.238;2023-05-24T04:06:20;6.00;;;5.40;;
6997;SDS011;3539;47.982;12.238;2023-05-24T04:08:53;5.50;;;5.00;;
6997;SDS011;3539;47.982;12.238;2023-05-24T04:11:20;6.47;;;5.67;;
6997;SDS011;3539;47.982;12.238;2023-05-24T04:13:47;6.40;;;5.80;;
6997;SDS011;3539;47.982;12.238;2023-05-24T04:16:15;6.07;;;5.50;;
6997;SDS011;3539;47.982;12.238;2023-05-24T04:18:44;6.57;;;5.87;;
6997;SDS011;3539;47.982;12.238;2023-05-24T04:21:11;5.90;;;5.30;;
6997;SDS011;3539;47.982;12.238;2023-05-24T04:23:38;6.20;;;5.60;;
6997;SDS011;3539;47.982;12.238;2023-05-24T04:26:05;6.67;;;5.90;;
6997;SDS011;3539;47.982;12.238;2023-05-24T04:28:34;6.23;;;5.63;;
6997;SDS011;3539;47.982;12.238;2023-05-24T04:31:02;6.10;;;5.60;;
6997;SDS011;3539;47.982;12.238;2023-05-24T04:33:30;6.37;;;5.77;;
6997;SDS011;3539;47.982;12.238;2023-05-24T04:35:58;7.33;;;5.90;;
6997;SDS011;3539;47.982;12.238;2023-05-24T04:38:25;5.83;;;5.27;;
6997;SDS011;3539;47.982;12.238;2023-05-24T04:40:53;6.10;;;5.47;;
6997;SDS011;3539;47.982;12.238;2023-05-24T04:43:20;6.80;;;5.53;;
6997;SDS011;3539;47.982;12.238;2023-05-24T04:45:50;6.07;;;5.47;;
6997;SDS011;3539;47.982;12.238;2023-05-24T04:48:17;6.33;;;5.73;;
6997;SDS011;3539;47.982;12.238;2023-05-24T04:50:45;6.20;;;5.67;;
6997;SDS011;3539;47.982;12.238;2023-05-24T04:53:14;6.50;;;5.23;;
6997;SDS011;3539;47.982;12.238;2023-05-24T04:55:41;6.20;;;5.60;;
6997;SDS011;3539;47.982;12.238;2023-05-24T04:58:07;5.90;;;5.37;;
6997;SDS011;3539;47.982;12.238;2023-05-24T05:00:34;6.03;;;5.43;;
6997;SDS011;3539;47.982;12.238;2023-05-24T05:03:01;6.30;;;5.10;;
6997;SDS011;3539;47.982;12.238;2023-05-24T05:05:28;5.90;;;5.30;;
6997;SDS011;3539;47.982;12.238;2023-05-24T05:07:55;6.07;;;5.40;;
6997;SDS011;3539;47.982;12.238;2023-05-24T05:10:23;6.20;;;5.60;;
6997;SDS011;3539;47.982;12.238;2023-05-24T05:12:50;6.13;;;5.53;;
6997;SDS011;3539;47.982;12.238;2023-05-24T05:15:17;6.57;;;5.97;;
6997;SDS011;3539;47.982;12.238;2023-05-24T05:17:43;6.13;;;5.53;;
6997;SDS011;3539;47.982;12.238;2023-05-24T05:20:10;6.27;;;5.67;;
6997;SDS011;3539;47.982;12.238;2023-05-24T05:22:37;6.10;;;5.50;;
6997;SDS011;3539;47.982;12.238;2023-05-24T05:25:04;5.93;;;5.33;;
6997;SDS011;3539;47.982;12.238;2023-05-24T05:27:33;6.40;;;5.80;;
6997;SDS011;3539;47.982;12.238;2023-05-24T05:29:59;6.43;;;5.83;;
6997;SDS011;3539;47.982;12.238;2023-05-24T05:32:26;5.67;;;5.17;;
6997;SDS011;3539;47.982;12.238;2023-05-24T05:34:53;6.00;;;5.27;;
6997;SDS011;3539;47.982;12.238;2023-05-24T05:37:20;6.47;;;5.77;;
6997;SDS011;3539;47.982;12.238;2023-05-24T05:39:46;7.13;;;5.90;;
6997;SDS011;3539;47.982;12.238;2023-05-24T05:42:13;6.33;;;5.73;;
6997;SDS011;3539;47.982;12.238;2023-05-24T05:44:42;6.00;;;5.40;;
6997;SDS011;3539;47.982;12.238;2023-05-24T05:47:09;5.97;;;5.37;;
6997;SDS011;3539;47.982;12.238;2023-05-24T05:49:36;6.40;;;5.80;;
6997;SDS011;3539;47.982;12.238;2023-05-24T05:52:03;6.57;;;5.80;;
6997;SDS011;3539;47.982;12.238;2023-05-24T05:54:30;6.87;;;6.20;;
6997;SDS011;3539;47.982;12.238;2023-05-24T05:56:57;5.67;;;5.10;;
6997;SDS011;3539;47.982;12.238;2023-05-24T05:59:24;6.13;;;5.57;;
6997;SDS011;3539;47.982;12.238;2023-05-24T06:01:52;7.60;;;5.93;;
6997;SDS011;3539;47.982;12.238;2023-05-24T06:04:18;6.70;;;6.10;;
6997;SDS011;3539;47.982;12.238;2023-05-24T06:06:45;6.13;;;5.57;;
6997;SDS011;3539;47.982;12.238;2023-05-24T06:09:13;6.90;;;6.20;;
6997;SDS011;3539;47.982;12.238;2023-05-24T06:11:40;6.90;;;6.27;;
6997;SDS011;3539;47.982;12.238;2023-05-24T06:14:09;6.77;;;6.07;;
6997;SDS011;3539;47.982;12.238;2023-05-24T06:16:36;7.33;;;6.37;;
6997;SDS011;3539;47.982;12.238;2023-05-24T06:19:07;7.30;;;6.60;;
6997;SDS011;3539;47.982;12.238;2023-05-24T06:21:34;8.73;;;7.00;;
6997;SDS011;3539;47.982;12.238;2023-05-24T06:24:01;8.50;;;6.83;;
6997;SDS011;3539;47.982;12.238;2023-05-24T06:26:28;7.17;;;6.47;;
6997;SDS011;3539;47.982;12.238;2023-05-24T06:28:55;7.80;;;7.00;;
6997;SDS011;3539;47.982;12.238;2023-05-24T06:31:22;7.57;;;6.80;;
6997;SDS011;3539;47.982;12.238;2023-05-24T06:33:49;7.47;;;6.70;;
6997;SDS011;3539;47.982;12.238;2023-05-24T06:36:17;7.27;;;6.57;;
6997;SDS011;3539;47.982;12.238;2023-05-24T06:38:44;8.53;;;6.90;;
6997;SDS011;3539;47.982;12.238;2023-05-24T06:41:10;7.63;;;6.93;;
6997;SDS011;3539;47.982;12.238;2023-05-24T06:43:37;8.33;;;6.83;;
6997;SDS011;3539;47.982;12.238;2023-05-24T06:46:04;9.67;;;7.63;;
6997;SDS011;3539;47.982;12.238;2023-05-24T06:48:31;8.00;;;7.20;;
6997;SDS011;3539;47.982;12.238;2023-05-24T06:50:58;8.40;;;7.03;;
6997;SDS011;3539;47.982;12.238;2023-05-24T06:53:26;8.33;;;7.40;;
6997;SDS011;3539;47.982;12.238;2023-05-24T06:55:53;8.60;;;7.70;;
6997;SDS011;3539;47.982;12.238;2023-05-24T06:58:20;8.00;;;7.20;;
6997;SDS011;3539;47.982;12.238;2023-05-24T07:00:47;8.13;;;7.17;;
6997;SDS011;3539;47.982;12.238;2023-05-24T07:03:14;8.33;;;6.70;;
6997;SDS011;3539;47.982;12.238;2023-05-24T07:05:41;7.93;;;7.13;;
6997;SDS011;3539;47.982;12.238;2023-05-24T07:08:07;8.10;;;7.40;;
6997;SDS011;3539;47.982;12.238;2023-05-24T07:10:36;8.80;;;7.77;;
6997;SDS011;3539;47.982;12.238;2023-05-24T07:13:03;8.57;;;7.57;;
6997;SDS011;3539;47.982;12.238;2023-05-24T07:15:29;7.97;;;7.07;;
6997;SDS011;3539;47.982;12.238;2023-05-24T07:17:56;8.33;;;7.20;;
6997;SDS011;3539;47.982;12.238;2023-05-24T07:20:23;8.30;;;7.50;;
6997;SDS011;3539;47.982;12.238;2023-05-24T07:22:49;7.87;;;6.60;;
6997;SDS011;3539;47.982;12.238;2023-05-24T07:25:17;7.77;;;6.97;;
6997;SDS011;3539;47.982;12.238;2023-05-24T07:27:45;6.97;;;6.37;;
6997;SDS011;3539;47.982;12.238;2023-05-24T07:30:12;6.43;;;5.83;;
6997;SDS011;3539;47.982;12.238;2023-05-24T07:32:39;7.67;;;6.87;;
6997;SDS011;3539;47.982;12.238;2023-05-24T07:35:06;6.93;;;6.30;;
6997;SDS011;3539;47.982;12.238;2023-05-24T07:37:33;7.53;;;6.67;;
6997;SDS011;3539;47.982;12.238;2023-05-24T07:40:00;6.70;;;5.97;;
6997;SDS011;3539;47.982;12.238;2023-05-24T07:42:27;7.20;;;6.40;;
6997;SDS011;3539;47.982;12.238;2023-05-24T07:44:55;6.37;;;5.77;;
6997;SDS011;3539;47.982;12.238;2023-05-24T07:47:22;7.00;;;6.30;;
6997;SDS011;3539;47.982;12.238;2023-05-24T07:49:49;7.10;;;6.40;;
6997;SDS011;3539;47.982;12.238;2023-05-24T07:52:15;6.73;;;5.90;;
6997;SDS011;3539;47.982;12.238;2023-05-24T07:54:42;7.30;;;6.53;;
6997;SDS011;3539;47.982;12.238;2023-05-24T07:57:09;6.57;;;5.93;;
6997;SDS011;3539;47.982;12.238;2023-05-24T07:59:35;6.53;;;5.93;;
6997;SDS011;3539;47.982;12.238;2023-05-24T08:02:04;7.33;;;6.63;;
6997;SDS011;3539;47.982;12.238;2023-05-24T08:04:32;6.40;;;5.80;;
6997;SDS011;3539;47.982;12.238;2023-05-24T08:06:59;6.77;;;5.83;;
6997;SDS011;3539;47.982;12.238;2023-05-24T08:09:27;7.20;;;6.40;;
6997;SDS011;3539;47.982;12.238;2023-05-24T08:11:57;7.27;;;6.57;;
6997;SDS011;3539;47.982;12.238;2023-05-24T08:14:24;6.77;;;6.03;;
6997;SDS011;3539;47.982;12.238;2023-05-24T08:16:51;6.53;;;5.90;;
6997;SDS011;3539;47.982;12.238;2023-05-24T08:19:19;7.97;;;6.17;;
6997;SDS011;3539;47.982;12.238;2023-05-24T08:21:45;7.20;;;6.50;;
6997;SDS011;3539;47.982;12.238;2023-05-24T08:24:12;6.73;;;6.03;;
6997;SDS011;3539;47.982;12.238;2023-05-24T08:26:39;5.90;;;5.40;;
6997;SDS011;3539;47.982;12.238;2023-05-24T08:29:07;6.83;;;5.70;;
6997;SDS011;3539;47.982;12.238;2023-05-24T08:31:34;6.43;;;5.77;;
6997;SDS011;3539;47.982;12.238;2023-05-24T08:34:02;6.73;;;6.03;;
6997;SDS011;3539;47.982;12.238;2023-05-24T08:36:30;6.77;;;6.17;;
6997;SDS011;3539;47.982;12.238;2023-05-24T08:38:58;7.47;;;6.27;;
6997;SDS011;3539;47.982;12.238;2023-05-24T08:41:24;7.10;;;6.33;;
6997;SDS011;3539;47.982;12.238;2023-05-24T08:43:52;6.30;;;5.70;;
6997;SDS011;3539;47.982;12.238;2023-05-24T08:46:19;7.07;;;6.37;;
6997;SDS011;3539;47.982;12.238;2023-05-24T08:48:46;6.97;;;5.90;;
6997;SDS011;3539;47.982;12.238;2023-05-24T08:51:13;6.47;;;5.87;;
6997;SDS011;3539;47.982;12.238;2023-05-24T08:53:41;6.67;;;5.97;;
6997;SDS011;3539;47.982;12.238;2023-05-24T08:56:12;7.30;;;6.47;;
6997;SDS011;3539;47.982;12.238;2023-05-24T08:58:41;7.17;;;6.07;;
6997;SDS011;3539;47.982;12.238;2023-05-24T09:01:08;6.80;;;6.20;;
6997;SDS011;3539;47.982;12.238;2023-05-24T09:03:35;7.23;;;6.53;;
6997;SDS011;3539;47.982;12.238;2023-05-24T09:06:02;6.70;;;6.00;;
6997;SDS011;3539;47.982;12.238;2023-05-24T09:08:30;5.87;;;5.37;;
6997;SDS011;3539;47.982;12.238;2023-05-24T09:11:00;6.00;;;5.50;;
6997;SDS011;3539;47.982;12.238;2023-05-24T09:13:27;6.00;;;5.50;;
6997;SDS011;3539;47.982;12.238;2023-05-24T09:15:55;7.60;;;5.73;;
6997;SDS011;3539;47.982;12.238;2023-05-24T09:18:24;7.37;;;5.80;;
6997;SDS011;3539;47.982;12.238;2023-05-24T09:20:50;6.57;;;5.77;;
6997;SDS011;3539;47.982;12.238;2023-05-24T09:23:17;7.00;;;6.30;;
6997;SDS011;3539;47.982;12.238;2023-05-24T09:25:44;6.87;;;6.17;;
6997;SDS011;3539;47.982;12.238;2023-05-24T09:28:13;7.37;;;6.63;;
6997;SDS011;3539;47.982;12.238;2023-05-24T09:30:42;6.73;;;6.03;;
6997;SDS011;3539;47.982;12.238;2023-05-24T09:33:09;7.97;;;6.70;;
6997;SDS011;3539;47.982;12.238;2023-05-24T09:35:38;7.53;;;6.50;;
6997;SDS011;3539;47.982;12.238;2023-05-24T09:38:14;7.47;;;6.70;;
6997;SDS011;3539;47.982;12.238;2023-05-24T09:40:42;8.33;;;7.23;;
6997;SDS011;3539;47.982;12.238;2023-05-24T09:43:09;7.03;;;6.33;;
6997;SDS011;3539;47.982;12.238;2023-05-24T09:45:44;7.00;;;6.30;;
6997;SDS011;3539;47.982;12.238;2023-05-24T09:48:13;8.10;;;6.93;;
6997;SDS011;3539;47.982;12.238;2023-05-24T09:50:41;7.97;;;7.00;;
6997;SDS011;3539;47.982;12.238;2023-05-24T09:53:09;8.33;;;7.53;;
6997;SDS011;3539;47.982;12.238;2023-05-24T09:55:36;8.30;;;6.87;;
6997;SDS011;3539;47.982;12.238;2023-05-24T09:58:04;8.00;;;7.20;;
6997;SDS011;3539;47.982;12.238;2023-05-24T10:00:32;7.23;;;6.53;;
6997;SDS011;3539;47.982;12.238;2023-05-24T10:03:02;7.90;;;7.10;;
6997;SDS011;3539;47.982;12.238;2023-05-24T10:05:31;7.27;;;6.57;;
6997;SDS011;3539;47.982;12.238;2023-05-24T10:07:58;6.90;;;6.23;;
6997;SDS011;3539;47.982;12.238;2023-05-24T10:10:26;6.80;;;6.10;;
6997;SDS011;3539;47.982;12.238;2023-05-24T10:12:54;6.60;;;6.00;;
6997;SDS011;3539;47.982;12.238;2023-05-24T10:15:21;6.80;;;6.10;;
6997;SDS011;3539;47.982;12.238;2023-05-24T10:17:48;6.83;;;6.20;;
6997;SDS011;3539;47.982;12.238;2023-05-24T10:20:16;7.07;;;6.30;;
6997;SDS011;3539;47.982;12.238;2023-05-24T10:22:44;10.50;;;5.87;;
6997;SDS011;3539;47.982;12.238;2023-05-24T10:25:13;10.20;;;8.20;;
6997;SDS011;3539;47.982;12.238;2023-05-24T10:27:42;8.50;;;7.23;;
6997;SDS011;3539;47.982;12.238;2023-05-24T10:30:10;8.30;;;6.70;;
6997;SDS011;3539;47.982;12.238;2023-05-24T10:32:40;9.93;;;7.97;;
6997;SDS011;3539;47.982;12.238;2023-05-24T10:35:08;7.23;;;6.53;;
6997;SDS011;3539;47.982;12.238;2023-05-24T10:37:40;8.33;;;6.73;;
6997;SDS011;3539;47.982;12.238;2023-05-24T10:40:12;6.50;;;5.87;;
6997;SDS011;3539;47.982;12.238;2023-05-24T10:42:42;6.93;;;6.20;;
6997;SDS011;3539;47.982;12.238;2023-05-24T10:54:16;8.47;;;6.50;;
6997;SDS011;3539;47.982;12.238;2023-05-24T10:56:44;7.17;;;6.50;;
6997;SDS011;3539;47.982;12.238;2023-05-24T10:59:21;7.00;;;5.97;;
6997;SDS011;3539;47.982;12.238;2023-05-24T11:01:56;7.10;;;6.07;;
6997;SDS011;3539;47.982;12.238;2023-05-24T11:04:25;7.63;;;6.47;;
6997;SDS011;3539;47.982;12.238;2023-05-24T11:06:54;7.23;;;6.53;;
6997;SDS011;3539;47.982;12.238;2023-05-24T11:09:23;9.30;;;6.67;;
6997;SDS011;3539;47.982;12.238;2023-05-24T11:11:55;7.17;;;6.47;;
6997;SDS011;3539;47.982;12.238;2023-05-24T11:14:26;8.97;;;7.10;;
6997;SDS011;3539;47.982;12.238;2023-05-24T11:16:54;6.80;;;5.97;;
6997;SDS011;3539;47.982;12.238;2023-05-24T11:19:22;6.50;;;5.90;;
6997;SDS011;3539;47.982;12.238;2023-05-24T11:21:50;6.13;;;5.40;;
6997;SDS011;3539;47.982;12.238;2023-05-24T11:24:24;8.20;;;5.67;;
6997;SDS011;3539;47.982;12.238;2023-05-24T11:26:51;6.40;;;5.80;;
6997;SDS011;3539;47.982;12.238;2023-05-24T11:29:18;6.97;;;5.97;;
6997;SDS011;3539;47.982;12.238;2023-05-24T11:31:47;7.20;;;6.07;;
6997;SDS011;3539;47.982;12.238;2023-05-24T11:34:14;6.00;;;5.40;;
6997;SDS011;3539;47.982;12.238;2023-05-24T11:36:41;6.40;;;5.67;;
6997;SDS011;3539;47.982;12.238;2023-05-24T11:39:09;7.27;;;6.27;;
6997;SDS011;3539;47.982;12.238;2023-05-24T11:41:37;8.10;;;6.23;;
6997;SDS011;3539;47.982;12.238;2023-05-24T11:44:05;8.93;;;6.13;;
6997;SDS011;3539;47.982;12.238;2023-05-24T11:46:32;8.70;;;6.80;;
6997;SDS011;3539;47.982;12.238;2023-05-24T11:48:59;7.80;;;6.77;;
6997;SDS011;3539;47.982;12.238;2023-05-24T11:51:28;7.63;;;6.83;;
6997;SDS011;3539;47.982;12.238;2023-05-24T11:53:55;7.83;;;7.03;;
6997;SDS011;3539;47.982;12.238;2023-05-24T11:56:22;7.40;;;6.70;;
6997;SDS011;3539;47.982;12.238;2023-05-24T11:58:50;8.20;;;7.40;;
6997;SDS011;3539;47.982;12.238;2023-05-24T12:01:24;10.60;;;8.43;;
6997;SDS011;3539;47.982;12.238;2023-05-24T12:03:51;9.53;;;8.63;;
6997;SDS011;3539;47.982;12.238;2023-05-24T12:06:18;10.20;;;9.03;;
6997;SDS011;3539;47.982;12.238;2023-05-24T12:08:46;10.40;;;9.00;;
6997;SDS011;3539;47.982;12.238;2023-05-24T12:11:13;10.50;;;8.60;;
6997;SDS011;3539;47.982;12.238;2023-05-24T12:13:40;12.10;;;9.43;;
6997;SDS011;3539;47.982;12.238;2023-05-24T12:16:09;10.57;;;9.33;;
6997;SDS011;3539;47.982;12.238;2023-05-24T12:18:37;9.97;;;8.83;;
6997;SDS011;3539;47.982;12.238;2023-05-24T12:21:05;11.37;;;9.53;;
6997;SDS011;3539;47.982;12.238;2023-05-24T12:23:34;10.30;;;9.30;;
6997;SDS011;3539;47.982;12.238;2023-05-24T12:26:01;10.80;;;9.53;;
6997;SDS011;3539;47.982;12.238;2023-05-24T12:28:31;11.07;;;9.47;;
6997;SDS011;3539;47.982;12.238;2023-05-24T12:30:59;11.47;;;9.37;;
6997;SDS011;3539;47.982;12.238;2023-05-24T12:33:27;11.30;;;9.77;;
6997;SDS011;3539;47.982;12.238;2023-05-24T12:35:55;11.50;;;10.37;;
6997;SDS011;3539;47.982;12.238;2023-05-24T12:38:22;11.73;;;9.73;;
6997;SDS011;3539;47.982;12.238;2023-05-24T12:40:50;10.07;;;9.07;;
6997;SDS011;3539;47.982;12.238;2023-05-24T12:43:17;13.40;;;10.13;;
6997;SDS011;3539;47.982;12.238;2023-05-24T12:45:44;11.93;;;9.77;;
6997;SDS011;3539;47.982;12.238;2023-05-24T12:48:11;10.57;;;9.40;;
6997;SDS011;3539;47.982;12.238;2023-05-24T12:50:39;10.43;;;9.43;;
6997;SDS011;3539;47.982;12.238;2023-05-24T12:53:06;9.80;;;8.87;;
6997;SDS011;3539;47.982;12.238;2023-05-24T12:55:33;12.27;;;9.73;;
6997;SDS011;3539;47.982;12.238;2023-05-24T12:58:03;11.07;;;9.00;;
6997;SDS011;3539;47.982;12.238;2023-05-24T13:00:33;10.30;;;9.20;;
6997;SDS011;3539;47.982;12.238;2023-05-24T13:03:02;12.03;;;9.53;;
6997;SDS011;3539;47.982;12.238;2023-05-24T13:05:28;10.20;;;9.10;;
6997;SDS011;3539;47.982;12.238;2023-05-24T13:07:57;13.30;;;9.10;;
6997;SDS011;3539;47.982;12.238;2023-05-24T13:10:24;10.40;;;9.40;;
6997;SDS011;3539;47.982;12.238;2023-05-24T13:12:51;11.23;;;8.80;;
6997;SDS011;3539;47.982;12.238;2023-05-24T13:15:18;11.37;;;9.40;;
6997;SDS011;3539;47.982;12.238;2023-05-24T13:17:47;13.20;;;9.73;;
6997;SDS011;3539;47.982;12.238;2023-05-24T13:20:14;12.20;;;9.47;;
6997;SDS011;3539;47.982;12.238;2023-05-24T13:22:42;12.50;;;10.03;;
6997;SDS011;3539;47.982;12.238;2023-05-24T13:25:10;11.37;;;10.17;;
6997;SDS011;3539;47.982;12.238;2023-05-24T13:27:37;10.60;;;9.50;;
6997;SDS011;3539;47.982;12.238;2023-05-24T13:30:05;11.50;;;10.30;;
6997;SDS011;3539;47.982;12.238;2023-05-24T13:32:33;12.07;;;10.37;;
6997;SDS011;3539;47.982;12.238;2023-05-24T13:34:59;12.20;;;10.87;;
6997;SDS011;3539;47.982;12.238;2023-05-24T13:37:26;12.77;;;9.80;;
6997;SDS011;3539;47.982;12.238;2023-05-24T13:39:53;11.87;;;9.97;;
6997;SDS011;3539;47.982;12.238;2023-05-24T13:42:22;10.03;;;9.00;;
6997;SDS011;3539;47.982;12.238;2023-05-24T13:44:48;9.70;;;8.70;;
6997;SDS011;3539;47.982;12.238;2023-05-24T13:47:15;11.30;;;9.13;;
6997;SDS011;3539;47.982;12.238;2023-05-24T13:49:43;9.40;;;8.40;;
6997;SDS011;3539;47.982;12.238;2023-05-24T13:52:10;10.73;;;8.83;;
6997;SDS011;3539;47.982;12.238;2023-05-24T13:54:37;9.53;;;8.53;;
6997;SDS011;3539;47.982;12.238;2023-05-24T13:57:04;14.10;;;9.43;;
6997;SDS011;3539;47.982;12.238;2023-05-24T13:59:32;11.37;;;8.93;;
6997;SDS011;3539;47.982;12.238;2023-05-24T14:01:59;10.00;;;9.00;;
6997;SDS011;3539;47.982;12.238;2023-05-24T14:04:26;12.67;;;9.70;;
6997;SDS011;3539;47.982;12.238;2023-05-24T14:06:54;11.87;;;9.30;;
6997;SDS011;3539;47.982;12.238;2023-05-24T14:09:21;13.87;;;9.23;;
6997;SDS011;3539;47.982;12.238;2023-05-24T14:11:50;11.27;;;9.43;;
6997;SDS011;3539;47.982;12.238;2023-05-24T14:14:17;9.90;;;8.70;;
6997;SDS011;3539;47.982;12.238;2023-05-24T14:16:45;11.63;;;8.80;;
6997;SDS011;3539;47.982;12.238;2023-05-24T14:19:15;10.50;;;8.57;;
6997;SDS011;3539;47.982;12.238;2023-05-24T14:21:42;11.03;;;9.20;;
6997;SDS011;3539;47.982;12.238;2023-05-24T14:24:09;11.93;;;8.70;;
6997;SDS011;3539;47.982;12.238;2023-05-24T14:26:36;10.30;;;7.90;;
6997;SDS011;3539;47.982;12.238;2023-05-24T14:29:02;8.67;;;7.67;;
6997;SDS011;3539;47.982;12.238;2023-05-24T14:31:29;9.23;;;7.83;;
6997;SDS011;3539;47.982;12.238;2023-05-24T14:33:59;9.50;;;7.80;;
6997;SDS011;3539;47.982;12.238;2023-05-24T14:36:25;11.33;;;8.67;;
6997;SDS011;3539;47.982;12.238;2023-05-24T14:38:52;11.47;;;8.40;;
6997;SDS011;3539;47.982;12.238;2023-05-24T14:41:19;9.33;;;8.40;;
6997;SDS011;3539;47.982;12.238;2023-05-24T14:43:46;11.57;;;8.67;;
6997;SDS011;3539;47.982;12.238;2023-05-24T14:46:13;11.07;;;8.20;;
6997;SDS011;3539;47.982;12.238;2023-05-24T14:48:40;10.07;;;8.23;;
6997;SDS011;3539;47.982;12.238;2023-05-24T14:51:08;10.93;;;7.70;;
6997;SDS011;3539;47.982;12.238;2023-05-24T14:53:34;10.00;;;8.43;;
6997;SDS011;3539;47.982;12.238;2023-05-24T14:56:01;11.43;;;8.93;;
6997;SDS011;3539;47.982;12.238;2023-05-24T14:58:30;10.50;;;8.60;;
6997;SDS011;3539;47.982;12.238;2023-05-24T15:00:56;12.40;;;8.50;;
6997;SDS011;3539;47.982;12.238;2023-05-24T15:03:23;8.80;;;7.27;;
6997;SDS011;3539;47.982;12.238;2023-05-24T15:05:50;9.87;;;8.07;;
6997;SDS011;3539;47.982;12.238;2023-05-24T15:08:18;10.50;;;7.90;;
6997;SDS011;3539;47.982;12.238;2023-05-24T15:10:45;11.63;;;8.90;;